Time;durP1;ratioP1;P1;durP2;ratioP2;P2;SDS_P1;SDS_P2;PMS_P1;PMS_P2;Temp;Humidity;BMP_temperature;BMP_pressure;BME280_temperature;BME280_humidity;BME280_pressure;Samples;Min_cycle;Max_cycle;Signal;HPM_P1;HPM_P2
2023/08/26 00:01:47;;;;;;;23.40;19.90;;;;;;;16.24;100.00;100868.91;5030143;28;20106;-73
2023/08/26 00:04:12;;;;;;;23.80;18.95;;;;;;;16.21;100.00;100874.50;5028510;28;20026;-73
2023/08/26 00:06:38;;;;;;;19.02;16.33;;;;;;;16.20;100.00;100880.78;5029323;28;20029;-73
2023/08/26 00:09:03;;;;;;;15.95;12.70;;;;;;;16.07;100.00;100867.88;5028539;28;20108;-73
2023/08/26 00:11:29;;;;;;;17.73;12.82;;;;;;;16.00;100.00;100866.78;5029994;28;20506;-73
2023/08/26 00:13:54;;;;;;;17.40;10.88;;;;;;;15.93;100.00;100873.66;5023586;28;20105;-73
2023/08/26 00:16:20;;;;;;;14.85;11.02;;;;;;;15.79;100.00;100876.81;5042327;28;20025;-73
2023/08/26 00:18:47;;;;;;;15.98;10.52;;;;;;;15.82;100.00;100876.53;5049265;28;20035;-72
2023/08/26 00:21:14;;;;;;;15.20;11.07;;;;;;;15.74;100.00;100876.44;5047335;28;20020;-72
2023/08/26 00:23:39;;;;;;;16.45;11.05;;;;;;;15.72;100.00;100873.09;5049443;28;20094;-72
2023/08/26 00:26:05;;;;;;;15.93;11.30;;;;;;;15.71;100.00;100872.25;5049858;28;20017;-74
2023/08/26 00:28:30;;;;;;;13.25;9.55;;;;;;;15.58;100.00;100872.56;5038666;28;20053;-73
2023/08/26 00:30:57;;;;;;;19.02;9.75;;;;;;;15.57;100.00;100881.47;5025120;28;20044;-72
2023/08/26 00:33:22;;;;;;;11.88;8.88;;;;;;;15.49;100.00;100878.69;5049705;28;20472;-72
2023/08/26 00:35:48;;;;;;;15.20;9.38;;;;;;;15.49;100.00;100868.09;5045790;28;20028;-73
2023/08/26 00:38:13;;;;;;;11.48;8.90;;;;;;;15.42;100.00;100871.47;5028713;28;20055;-73
2023/08/26 00:40:38;;;;;;;12.30;8.77;;;;;;;15.45;100.00;100869.38;5044321;28;20025;-73
2023/08/26 00:43:10;;;;;;;13.98;9.18;;;;;;;15.41;100.00;100870.63;5034702;28;20596;-73
2023/08/26 00:45:44;;;;;;;13.70;8.25;;;;;;;15.33;100.00;100878.47;5043032;28;20127;-73
2023/08/26 00:48:13;;;;;;;14.85;8.80;;;;;;;15.26;100.00;100888.00;5020085;28;20048;-73
2023/08/26 00:50:40;;;;;;;11.55;7.65;;;;;;;15.23;100.00;100882.97;5048561;28;20063;-72
2023/08/26 00:53:13;;;;;;;11.60;7.60;;;;;;;15.12;100.00;100880.47;5049007;28;20120;-73
2023/08/26 00:55:40;;;;;;;12.60;7.20;;;;;;;15.03;100.00;100879.50;5048892;28;20029;-73
2023/08/26 00:58:06;;;;;;;14.07;7.05;;;;;;;14.96;100.00;100887.19;5048290;28;20033;-73
2023/08/26 01:00:36;;;;;;;9.50;6.30;;;;;;;14.92;100.00;100883.16;5032731;28;20055;-73
2023/08/26 01:03:03;;;;;;;14.13;6.63;;;;;;;14.83;100.00;100886.63;5021212;28;20495;-73
2023/08/26 01:05:28;;;;;;;8.93;5.72;;;;;;;14.78;100.00;100878.25;5031610;28;20083;-73
2023/08/26 01:07:55;;;;;;;8.43;4.80;;;;;;;14.71;100.00;100882.44;5064129;28;20390;-72
2023/08/26 01:10:26;;;;;;;12.40;5.28;;;;;;;14.60;100.00;100886.06;5032943;28;20037;-72
2023/08/26 01:12:59;;;;;;;9.60;4.72;;;;;;;14.53;100.00;100886.75;5029797;28;20095;-73
2023/08/26 01:15:27;;;;;;;11.95;4.93;;;;;;;14.51;100.00;100888.72;5063809;28;20029;-72
2023/08/26 01:17:53;;;;;;;8.52;4.72;;;;;;;14.38;100.00;100892.41;5052856;28;20025;-73
2023/08/26 01:20:20;;;;;;;8.07;4.43;;;;;;;14.29;100.00;100882.63;5034629;28;20512;-73
2023/08/26 01:22:48;;;;;;;11.60;4.65;;;;;;;14.29;100.00;100889.75;5033701;28;20112;-72
2023/08/26 01:25:13;;;;;;;11.73;4.78;;;;;;;14.24;100.00;100889.31;5048996;28;20393;-73
2023/08/26 01:27:39;;;;;;;8.50;4.88;;;;;;;14.15;100.00;100890.13;5049402;28;20032;-73
2023/08/26 01:30:06;;;;;;;8.18;4.47;;;;;;;14.16;100.00;100892.66;5053276;28;20481;-73
2023/08/26 01:32:46;;;;;;;10.27;4.70;;;;;;;14.10;100.00;100894.03;5034552;28;20035;-73
2023/08/26 01:35:28;;;;;;;10.40;4.90;;;;;;;14.06;100.00;100894.44;5052236;28;20024;-73
2023/08/26 01:37:55;;;;;;;9.35;4.65;;;;;;;13.97;100.00;100890.75;5016341;28;20029;-72
2023/08/26 01:40:21;;;;;;;7.70;4.43;;;;;;;13.93;100.00;100885.88;5047670;28;20021;-73
2023/08/26 01:42:48;;;;;;;10.65;4.90;;;;;;;13.95;100.00;100889.22;5050113;28;20025;-72
2023/08/26 01:45:14;;;;;;;10.25;4.90;;;;;;;13.95;100.00;100887.41;5053042;28;20477;-73
2023/08/26 01:47:39;;;;;;;6.82;4.57;;;;;;;13.84;100.00;100890.16;5052130;28;20048;-72
2023/08/26 01:50:05;;;;;;;13.75;5.47;;;;;;;13.84;100.00;100889.34;5053073;28;20036;-72
2023/08/26 01:52:30;;;;;;;8.13;4.22;;;;;;;13.78;100.00;100891.53;5052836;28;20477;-73
2023/08/26 01:54:56;;;;;;;10.95;4.57;;;;;;;13.72;100.00;100889.44;5038476;28;20107;-72
2023/08/26 01:57:22;;;;;;;10.55;4.50;;;;;;;13.66;100.00;100895.25;5046607;28;20509;-72
2023/08/26 01:59:47;;;;;;;8.90;4.22;;;;;;;13.62;100.00;100899.13;5034787;28;20029;-72
2023/08/26 02:02:13;;;;;;;9.07;3.95;;;;;;;13.63;100.00;100898.16;5051319;28;20029;-72
2023/08/26 02:04:39;;;;;;;12.15;4.28;;;;;;;13.58;100.00;100892.41;5052158;28;20100;-72
2023/08/26 02:07:04;;;;;;;10.32;3.97;;;;;;;13.53;100.00;100891.97;5048105;28;20021;-73
2023/08/26 02:09:30;;;;;;;15.30;3.88;;;;;;;13.49;100.00;100887.91;5037768;28;20064;-72
2023/08/26 02:11:55;;;;;;;11.93;3.88;;;;;;;13.51;100.00;100885.97;5029508;28;20033;-73
2023/08/26 02:14:21;;;;;;;11.73;3.80;;;;;;;13.42;100.00;100887.59;5061569;28;20025;-72
2023/08/26 02:16:46;;;;;;;7.68;3.72;;;;;;;13.40;100.00;100889.53;5051410;28;20021;-72
2023/08/26 02:19:12;;;;;;;9.13;3.80;;;;;;;13.38;100.00;100885.34;5051637;28;20108;-73
2023/08/26 02:21:38;;;;;;;11.00;3.85;;;;;;;13.41;100.00;100888.56;5047724;28;20029;-72
2023/08/26 02:24:03;;;;;;;9.82;3.53;;;;;;;13.37;100.00;100884.53;5049511;28;20063;-72
2023/08/26 02:26:28;;;;;;;8.05;3.33;;;;;;;13.34;100.00;100883.94;5027534;28;20083;-72
2023/08/26 02:28:54;;;;;;;10.02;4.05;;;;;;;13.37;100.00;100888.97;5050832;28;20116;-72
2023/08/26 02:31:19;;;;;;;6.90;3.28;;;;;;;13.30;100.00;100890.47;5049282;28;20523;-72
2023/08/26 02:33:45;;;;;;;8.38;3.30;;;;;;;13.35;100.00;100882.97;5051477;28;20033;-73
2023/08/26 02:36:11;;;;;;;8.20;3.70;;;;;;;13.30;100.00;100887.81;5040308;28;20025;-73
2023/08/26 02:38:36;;;;;;;8.32;3.20;;;;;;;13.21;100.00;100894.72;5040123;28;20029;-72
2023/08/26 02:41:02;;;;;;;11.48;3.88;;;;;;;13.12;100.00;100882.22;5037562;28;20037;-73
2023/08/26 02:43:28;;;;;;;6.65;3.40;;;;;;;13.16;100.00;100888.94;5022150;28;20029;-72
2023/08/26 02:45:54;;;;;;;7.78;3.42;;;;;;;13.15;100.00;100890.72;5030018;28;20037;-72
2023/08/26 02:48:23;;;;;;;15.20;3.55;;;;;;;13.13;100.00;100887.38;5061950;28;20453;-72
2023/08/26 02:51:10;;;;;;;6.47;3.10;;;;;;;13.10;100.00;100882.38;5029932;28;20120;-72
2023/08/26 02:53:35;;;;;;;7.57;3.17;;;;;;;13.10;100.00;100876.25;5032237;28;20582;-72
2023/08/26 02:56:01;;;;;;;8.27;3.30;;;;;;;13.03;100.00;100875.94;5049575;28;20285;-72
2023/08/26 02:58:26;;;;;;;8.55;3.67;;;;;;;13.00;100.00;100886.75;5050612;28;20035;-72
2023/08/26 03:00:52;;;;;;;7.07;3.35;;;;;;;13.07;100.00;100879.13;5032897;28;20025;-72
2023/08/26 03:03:18;;;;;;;7.05;3.30;;;;;;;13.01;100.00;100880.50;5051531;28;20083;-72
2023/08/26 03:05:43;;;;;;;7.43;3.35;;;;;;;12.96;100.00;100880.03;5049497;28;20068;-72
2023/08/26 03:08:08;;;;;;;10.40;3.35;;;;;;;12.95;100.00;100881.00;5051275;28;20025;-72
2023/08/26 03:10:34;;;;;;;5.88;3.30;;;;;;;12.92;100.00;100878.63;5044214;28;20371;-72
2023/08/26 03:13:00;;;;;;;7.93;3.30;;;;;;;12.89;100.00;100881.53;5041509;28;20473;-72
2023/08/26 03:15:29;;;;;;;10.50;3.47;;;;;;;12.89;100.00;100881.53;5047960;28;20020;-73
2023/08/26 03:17:56;;;;;;;10.73;3.60;;;;;;;12.85;100.00;100888.03;5023651;28;20114;-73
2023/08/26 03:20:22;;;;;;;8.98;3.58;;;;;;;12.83;100.00;100885.53;5030550;28;20025;-72
2023/08/26 03:22:47;;;;;;;7.88;3.10;;;;;;;12.82;100.00;100888.28;5030592;28;20082;-72
2023/08/26 03:25:13;;;;;;;10.20;3.50;;;;;;;12.80;100.00;100885.75;5029537;28;20033;-72
2023/08/26 03:27:38;;;;;;;11.35;3.50;;;;;;;12.77;100.00;100885.16;5037700;28;20493;-71
2023/08/26 03:30:05;;;;;;;6.72;3.10;;;;;;;12.75;100.00;100887.09;5036778;28;20029;-72
2023/08/26 03:32:30;;;;;;;6.90;2.92;;;;;;;12.75;100.00;100892.38;5054371;28;20071;-72
2023/08/26 03:34:56;;;;;;;8.63;3.20;;;;;;;12.73;100.00;100887.22;5013958;28;20105;-71
2023/08/26 03:37:21;;;;;;;7.97;3.00;;;;;;;12.72;100.00;100889.97;5041471;28;20146;-72
2023/08/26 03:39:47;;;;;;;9.50;3.30;;;;;;;12.70;100.00;100891.91;5061711;28;20021;-72
2023/08/26 03:42:12;;;;;;;6.50;3.33;;;;;;;12.70;100.00;100889.28;5062127;28;20111;-72
2023/08/26 03:44:37;;;;;;;6.72;3.22;;;;;;;12.68;100.00;100892.03;5042908;28;20499;-72
2023/08/26 03:47:03;;;;;;;5.70;3.15;;;;;;;12.62;100.00;100891.72;5043324;28;20065;-72
2023/08/26 03:49:30;;;;;;;9.27;3.15;;;;;;;12.65;100.00;100896.75;5023935;28;20029;-72
2023/08/26 03:51:55;;;;;;;8.07;3.47;;;;;;;12.65;100.00;100894.94;5030720;28;20102;-73
2023/08/26 03:54:21;;;;;;;8.75;3.50;;;;;;;12.65;100.00;100894.09;5068618;28;20103;-72
2023/08/26 03:56:47;;;;;;;7.00;4.03;;;;;;;12.62;100.00;100897.00;5050329;28;20384;-72
2023/08/26 03:59:12;;;;;;;7.28;3.55;;;;;;;12.52;100.00;100895.09;5050409;28;20155;-72
2023/08/26 04:01:37;;;;;;;5.25;3.38;;;;;;;12.53;100.00;100902.06;5039749;28;20033;-72
2023/08/26 04:04:03;;;;;;;10.07;4.18;;;;;;;12.55;100.00;100899.28;5036895;28;20067;-72
2023/08/26 04:06:28;;;;;;;8.95;3.58;;;;;;;12.50;100.00;100902.31;5044203;28;20041;-72
2023/08/26 04:08:54;;;;;;;9.85;3.83;;;;;;;12.44;100.00;100905.44;5021499;28;20496;-72
2023/08/26 04:11:19;;;;;;;12.15;3.90;;;;;;;12.51;100.00;100906.63;5028229;28;20034;-72
2023/08/26 04:13:48;;;;;;;7.90;3.60;;;;;;;12.45;100.00;100915.03;5029793;28;20022;-72
2023/08/26 04:16:15;;;;;;;8.43;4.13;;;;;;;12.46;100.00;100915.88;5028908;28;20026;-72
2023/08/26 04:18:44;;;;;;;5.68;3.63;;;;;;;12.41;100.00;100918.91;5031303;28;20018;-72
2023/08/26 04:21:10;;;;;;;6.45;3.45;;;;;;;12.38;100.00;100919.13;5046385;28;20755;-74
2023/08/26 04:23:35;;;;;;;10.18;3.83;;;;;;;12.37;100.00;100917.44;5049611;28;20092;-73
2023/08/26 04:26:02;;;;;;;10.75;3.85;;;;;;;12.31;100.00;100917.94;5046929;28;20238;-72
2023/08/26 04:28:29;;;;;;;8.52;4.10;;;;;;;12.35;100.00;100922.00;5034204;28;20264;-72
2023/08/26 04:30:54;;;;;;;7.07;3.70;;;;;;;12.27;100.00;100929.69;5038196;28;20086;-72
2023/08/26 04:33:20;;;;;;;6.53;3.60;;;;;;;12.23;100.00;100928.25;5047944;28;20036;-72
2023/08/26 04:35:45;;;;;;;12.60;3.88;;;;;;;12.21;100.00;100924.91;5041557;28;20063;-74
2023/08/26 04:38:11;;;;;;;8.70;3.65;;;;;;;12.23;100.00;100933.53;5048399;28;20031;-74
2023/08/26 04:40:36;;;;;;;8.60;3.47;;;;;;;12.17;100.00;100939.31;5044685;28;20017;-73
2023/08/26 04:43:03;;;;;;;10.68;4.05;;;;;;;12.16;100.00;100937.63;5044808;28;20040;-74
2023/08/26 04:45:29;;;;;;;13.13;4.05;;;;;;;12.21;100.00;100940.75;5032181;28;20025;-74
2023/08/26 04:47:54;;;;;;;5.80;3.85;;;;;;;12.14;100.00;100942.19;5024321;28;20501;-74
2023/08/26 04:50:19;;;;;;;5.55;3.67;;;;;;;12.11;100.00;100951.19;5047372;28;20029;-74
2023/08/26 04:52:45;;;;;;;7.88;3.40;;;;;;;12.10;100.00;100949.50;5047819;28;20666;-73
2023/08/26 04:55:10;;;;;;;8.68;3.63;;;;;;;12.16;100.00;100956.09;5046856;28;20155;-74
2023/08/26 04:57:36;;;;;;;8.60;3.75;;;;;;;12.08;100.00;100951.44;5046840;28;20021;-74
2023/08/26 05:00:06;;;;;;;8.82;3.50;;;;;;;12.08;100.00;100956.69;5049503;28;20032;-74
2023/08/26 05:02:31;;;;;;;8.95;3.55;;;;;;;12.13;100.00;100958.97;5036329;28;20025;-74
2023/08/26 05:04:58;;;;;;;8.15;4.07;;;;;;;12.12;100.00;100962.56;5027758;28;20033;-74
2023/08/26 05:07:23;;;;;;;9.48;3.50;;;;;;;12.07;100.00;100959.47;5029501;28;20028;-74
2023/08/26 05:09:49;;;;;;;9.45;3.45;;;;;;;12.06;100.00;100974.44;5028147;28;20029;-73
2023/08/26 05:12:15;;;;;;;7.97;3.70;;;;;;;12.10;100.00;100975.03;5033718;28;20028;-74
2023/08/26 05:14:40;;;;;;;8.00;3.80;;;;;;;12.06;100.00;100971.81;5048917;28;20039;-73
2023/08/26 05:17:06;;;;;;;8.77;3.80;;;;;;;12.05;100.00;100969.28;5047802;28;20013;-74
2023/08/26 05:19:31;;;;;;;8.77;3.60;;;;;;;12.10;100.00;100964.50;5044283;28;20031;-73
2023/08/26 05:21:57;;;;;;;5.63;3.40;;;;;;;12.10;100.00;100967.13;5025445;28;20025;-72
2023/08/26 05:24:23;;;;;;;6.43;3.47;;;;;;;12.16;100.00;100974.56;5027953;28;20032;-72
2023/08/26 05:26:48;;;;;;;8.40;3.45;;;;;;;12.14;100.00;100960.66;5062371;28;20038;-72
2023/08/26 05:29:14;;;;;;;7.72;3.58;;;;;;;12.17;100.00;100963.88;5046906;28;20098;-72
2023/08/26 05:31:39;;;;;;;8.05;3.50;;;;;;;12.27;100.00;100971.06;5048855;28;20025;-72
2023/08/26 05:34:04;;;;;;;10.82;3.85;;;;;;;12.30;100.00;100971.66;5047881;28;20439;-72
2023/08/26 05:36:30;;;;;;;8.80;3.50;;;;;;;12.35;100.00;100972.13;5028106;28;20397;-73
2023/08/26 05:38:55;;;;;;;6.20;3.40;;;;;;;12.60;100.00;100967.53;5030322;28;20489;-72
2023/08/26 05:41:20;;;;;;;8.68;3.80;;;;;;;12.49;100.00;100961.34;5061136;28;20083;-72
2023/08/26 05:43:46;;;;;;;7.43;3.78;;;;;;;12.54;100.00;100963.59;5032007;28;20074;-72
2023/08/26 05:46:11;;;;;;;8.30;3.72;;;;;;;12.55;100.00;100967.91;5047920;28;20087;-72
2023/08/26 05:48:37;;;;;;;6.25;3.75;;;;;;;12.63;100.00;100957.56;5047569;28;20049;-72
2023/08/26 05:51:02;;;;;;;8.23;3.80;;;;;;;12.63;100.00;100956.75;5051306;28;20024;-72
2023/08/26 05:53:28;;;;;;;7.88;3.95;;;;;;;12.67;100.00;100950.25;5038984;28;20025;-73
2023/08/26 05:55:54;;;;;;;8.02;3.88;;;;;;;12.67;100.00;100959.00;5052495;28;20100;-73
2023/08/26 05:58:19;;;;;;;9.48;4.43;;;;;;;12.70;100.00;100963.19;5049595;28;20499;-72
2023/08/26 06:00:44;;;;;;;7.93;4.25;;;;;;;12.70;100.00;100964.03;5044173;28;20029;-73
2023/08/26 06:03:10;;;;;;;7.85;3.80;;;;;;;12.73;100.00;100957.66;5030535;28;20080;-73
2023/08/26 06:05:35;;;;;;;10.02;4.25;;;;;;;12.75;100.00;100955.72;5033097;28;20033;-73
2023/08/26 06:08:00;;;;;;;7.97;4.68;;;;;;;12.78;100.00;100963.41;5031802;28;20056;-72
2023/08/26 06:10:26;;;;;;;11.48;4.75;;;;;;;12.80;100.00;100959.69;5017453;28;20433;-72
2023/08/26 06:12:51;;;;;;;10.23;5.03;;;;;;;12.83;100.00;100954.19;5012803;28;20030;-72
2023/08/26 06:15:17;;;;;;;9.82;5.20;;;;;;;12.88;100.00;100956.44;5030192;28;20025;-72
2023/08/26 06:17:42;;;;;;;12.30;5.20;;;;;;;12.91;100.00;100940.34;5032432;28;20397;-72
2023/08/26 06:20:08;;;;;;;12.48;5.10;;;;;;;12.94;100.00;100942.72;5031218;28;20068;-72
2023/08/26 06:22:34;;;;;;;11.18;5.03;;;;;;;12.99;100.00;100942.34;5032717;28;20021;-73
2023/08/26 06:25:00;;;;;;;9.57;5.20;;;;;;;13.02;100.00;100947.38;5032411;28;20678;-73
2023/08/26 06:27:27;;;;;;;12.48;5.53;;;;;;;13.05;100.00;100947.13;5027000;28;20056;-72
2023/08/26 06:29:58;;;;;;;12.52;5.15;;;;;;;13.10;100.00;100952.84;5047438;28;20023;-72
2023/08/26 06:32:23;;;;;;;12.75;5.18;;;;;;;13.11;100.00;100942.16;5045662;28;20020;-72
2023/08/26 06:34:49;;;;;;;11.70;4.82;;;;;;;13.15;100.00;100940.94;5036263;28;20436;-72
2023/08/26 06:37:14;;;;;;;9.15;5.03;;;;;;;13.19;100.00;100938.91;5043815;28;20448;-73
2023/08/26 06:39:40;;;;;;;13.82;5.32;;;;;;;13.22;100.00;100948.41;5036710;28;20041;-74
2023/08/26 06:42:06;;;;;;;9.55;4.95;;;;;;;13.31;100.00;100951.13;5035456;28;20040;-71
2023/08/26 06:44:31;;;;;;;10.55;4.95;;;;;;;13.34;100.00;100942.09;5035871;28;20021;-71
2023/08/26 06:46:57;;;;;;;10.48;4.72;;;;;;;13.39;100.00;100939.88;5029550;28;20136;-74
2023/08/26 06:49:22;;;;;;;12.02;4.95;;;;;;;13.46;100.00;100935.75;5030765;28;20501;-71
2023/08/26 06:51:48;;;;;;;7.50;4.28;;;;;;;13.53;100.00;100936.91;5031735;28;20038;-72
2023/08/26 06:54:13;;;;;;;8.95;4.40;;;;;;;13.60;100.00;100932.78;5051356;28;20032;-72
2023/08/26 06:56:38;;;;;;;11.13;4.70;;;;;;;13.68;100.00;100934.78;5040509;28;20029;-72
2023/08/26 06:59:04;;;;;;;11.68;4.35;;;;;;;13.75;100.00;100933.28;5032701;28;20029;-72
2023/08/26 07:01:31;;;;;;;8.88;4.50;;;;;;;13.84;100.00;100950.16;5035568;28;20447;-72
2023/08/26 07:04:08;;;;;;;10.77;4.47;;;;;;;13.96;100.00;100947.28;5032517;28;20029;-72
2023/08/26 07:06:35;;;;;;;10.50;4.30;;;;;;;14.09;100.00;100950.56;5042590;28;20582;-72
2023/08/26 07:09:01;;;;;;;9.23;3.90;;;;;;;14.30;100.00;100947.00;5049905;28;20071;-72
2023/08/26 07:11:27;;;;;;;8.00;3.70;;;;;;;14.46;100.00;100946.53;5049211;28;20052;-72
2023/08/26 07:13:52;;;;;;;8.57;3.70;;;;;;;14.64;100.00;100943.06;5035881;28;20029;-72
2023/08/26 07:16:18;;;;;;;8.05;3.88;;;;;;;14.83;100.00;100944.09;5040765;28;20031;-71
2023/08/26 07:18:43;;;;;;;6.93;3.22;;;;;;;15.03;100.00;100943.94;5020830;28;20122;-71
2023/08/26 07:21:09;;;;;;;8.07;3.15;;;;;;;15.27;100.00;100953.28;4980880;28;20116;-71
2023/08/26 07:23:35;;;;;;;8.48;3.72;;;;;;;15.42;100.00;100949.19;5009752;28;20053;-72
2023/08/26 07:26:01;;;;;;;6.63;3.38;;;;;;;15.62;100.00;100952.69;5019940;28;20060;-72
2023/08/26 07:28:26;;;;;;;9.30;3.25;;;;;;;15.80;100.00;100944.81;5035381;28;20488;-72
2023/08/26 07:30:53;;;;;;;8.00;2.60;;;;;;;15.98;100.00;100951.88;5034932;28;20029;-72
2023/08/26 07:33:18;;;;;;;6.07;2.72;;;;;;;16.19;100.00;100950.81;5030227;28;20108;-71
2023/08/26 07:35:44;;;;;;;10.38;3.00;;;;;;;16.32;100.00;100945.16;5030350;28;20031;-72
2023/08/26 07:38:12;;;;;;;8.25;2.90;;;;;;;16.45;99.78;100948.31;5033661;28;20048;-72
2023/08/26 07:40:37;;;;;;;6.03;3.00;;;;;;;16.64;100.00;100950.00;5038779;28;20037;-72
2023/08/26 07:43:03;;;;;;;8.30;2.72;;;;;;;16.81;98.52;100951.84;5035690;28;20534;-72
2023/08/26 07:45:28;;;;;;;6.30;2.72;;;;;;;16.89;96.00;100950.13;5026656;28;20116;-72
2023/08/26 07:47:54;;;;;;;7.60;2.65;;;;;;;17.07;96.08;100952.78;5040472;28;20049;-72
2023/08/26 07:50:19;;;;;;;6.75;2.38;;;;;;;17.22;94.54;100953.09;5042245;28;20491;-72
2023/08/26 07:52:45;;;;;;;5.38;2.22;;;;;;;17.39;94.91;100957.53;5046210;28;20028;-72
2023/08/26 07:55:10;;;;;;;6.90;2.60;;;;;;;17.57;93.76;100967.28;5039672;28;20025;-72
2023/08/26 07:57:35;;;;;;;5.78;2.47;;;;;;;17.80;92.43;100966.66;5029052;28;20029;-72
2023/08/26 08:00:05;;;;;;;4.63;1.88;;;;;;;17.82;89.44;100969.16;5039323;28;20039;-72
2023/08/26 08:02:31;;;;;;;9.23;2.80;;;;;;;17.88;88.38;100959.69;5060226;28;20104;-72
2023/08/26 08:04:56;;;;;;;5.45;1.98;;;;;;;18.12;88.66;100952.69;5043271;28;20025;-72
2023/08/26 08:07:22;;;;;;;7.90;1.90;;;;;;;18.22;89.77;100960.53;5032485;28;20025;-72
2023/08/26 08:09:47;;;;;;;6.35;2.30;;;;;;;18.31;86.96;100943.59;5045717;28;20028;-72
2023/08/26 08:12:14;;;;;;;4.45;1.98;;;;;;;18.60;88.00;100950.34;5038463;28;20020;-71
2023/08/26 08:14:40;;;;;;;7.78;2.10;;;;;;;18.79;85.44;100950.06;5042252;28;20235;-72
2023/08/26 08:17:06;;;;;;;5.65;1.90;;;;;;;18.82;83.26;100938.28;5033231;28;20091;-72
2023/08/26 08:19:36;;;;;;;5.07;2.20;;;;;;;18.91;83.42;100939.94;5031670;28;20021;-73
2023/08/26 08:22:02;;;;;;;7.72;2.20;;;;;;;19.15;84.60;100941.78;5027931;28;20037;-72
2023/08/26 08:24:27;;;;;;;6.13;2.20;;;;;;;19.20;81.24;100942.09;5028757;28;20039;-73
2023/08/26 08:26:52;;;;;;;5.50;1.35;;;;;;;19.29;80.91;100941.97;5030390;28;20025;-72
2023/08/26 08:29:18;;;;;;;3.55;1.60;;;;;;;19.20;80.25;100945.59;5047503;28;20523;-72
2023/08/26 08:31:43;;;;;;;4.97;1.52;;;;;;;19.51;82.00;100942.25;5040324;28;20093;-72
2023/08/26 08:34:08;;;;;;;4.95;1.58;;;;;;;19.50;77.81;100945.91;5030463;28;20031;-71
2023/08/26 08:36:34;;;;;;;6.93;1.90;;;;;;;19.55;77.14;100946.28;5044440;28;20370;-71
2023/08/26 08:38:59;;;;;;;4.70;1.48;;;;;;;19.68;77.68;100938.59;5040287;28;20121;-71
2023/08/26 08:41:26;;;;;;;4.53;1.48;;;;;;;19.83;77.83;100941.38;5028419;28;20063;-72
2023/08/26 08:44:00;;;;;;;6.15;1.77;;;;;;;20.02;77.40;100944.50;5036508;28;20497;-72
2023/08/26 08:46:26;;;;;;;3.63;1.42;;;;;;;20.11;76.85;100939.13;5045978;28;20079;-72
2023/08/26 08:48:52;;;;;;;4.95;1.50;;;;;;;20.03;77.73;100950.69;5033624;28;20446;-72
2023/08/26 08:51:18;;;;;;;3.40;1.42;;;;;;;20.04;75.91;100949.69;5060712;28;20021;-72
2023/08/26 08:53:49;;;;;;;4.75;1.50;;;;;;;19.98;76.79;100948.50;5037026;28;20048;-72
2023/08/26 08:56:19;;;;;;;5.88;1.45;;;;;;;19.79;80.83;100956.09;5032657;28;20040;-73
2023/08/26 08:58:48;;;;;;;4.43;1.50;;;;;;;19.81;74.89;100957.59;5025837;28;20097;-72
2023/08/26 09:01:17;;;;;;;4.13;1.40;;;;;;;20.14;76.24;100955.66;5026271;28;20079;-72
2023/08/26 09:03:43;;;;;;;6.78;1.80;;;;;;;20.53;73.72;100954.84;5033206;28;20166;-72
2023/08/26 09:06:09;;;;;;;4.35;1.25;;;;;;;20.64;71.60;100965.13;5048039;28;20494;-73
2023/08/26 09:08:34;;;;;;;3.28;1.50;;;;;;;20.73;71.40;100971.25;5038145;28;20032;-72
2023/08/26 09:11:00;;;;;;;6.40;1.52;;;;;;;20.48;70.16;100968.72;5024714;28;20034;-72
2023/08/26 09:13:26;;;;;;;3.45;1.52;;;;;;;20.13;72.73;100970.00;5045951;28;20029;-73
2023/08/26 09:15:52;;;;;;;6.00;1.67;;;;;;;20.17;73.41;100974.00;5030670;28;20118;-72
2023/08/26 09:18:19;;;;;;;3.88;1.40;;;;;;;20.27;72.40;100968.44;5043485;28;20675;-72
2023/08/26 09:20:46;;;;;;;2.70;1.27;;;;;;;20.33;73.21;100970.41;5045488;28;20037;-73
2023/08/26 09:23:11;;;;;;;3.72;1.30;;;;;;;20.48;71.96;100973.25;5037093;28;20028;-72
2023/08/26 09:25:50;;;;;;;4.03;1.55;;;;;;;20.34;72.53;100978.25;5031745;28;20029;-72
2023/08/26 09:28:16;;;;;;;3.22;1.40;;;;;;;20.48;73.56;100974.06;5033865;28;20116;-72
2023/08/26 09:30:41;;;;;;;2.65;1.17;;;;;;;20.23;71.28;100981.31;5045542;28;20108;-72
2023/08/26 09:33:13;;;;;;;3.03;1.30;;;;;;;20.12;71.59;100989.72;5045608;28;20025;-72
2023/08/26 09:35:47;;;;;;;3.27;1.40;;;;;;;20.03;72.63;100980.06;5048191;28;20025;-72
2023/08/26 09:38:12;;;;;;;3.53;1.30;;;;;;;20.15;70.07;100977.84;5050031;28;20024;-72
2023/08/26 09:40:39;;;;;;;4.57;1.50;;;;;;;20.44;71.69;100978.09;5043886;28;20033;-73
2023/08/26 09:43:04;;;;;;;3.80;1.02;;;;;;;20.59;70.93;100981.69;5030088;28;20021;-72
2023/08/26 09:45:35;;;;;;;4.18;1.33;;;;;;;20.86;70.10;100976.88;5038557;28;20039;-72
2023/08/26 09:48:00;;;;;;;2.80;1.10;;;;;;;21.05;70.03;100976.38;5039003;28;20103;-73
2023/08/26 09:50:31;;;;;;;4.32;1.45;;;;;;;21.10;67.94;100984.72;5036832;28;20029;-72
2023/08/26 09:52:56;;;;;;;5.25;1.40;;;;;;;21.06;68.63;100983.41;5047501;28;20543;-72
2023/08/26 09:55:22;;;;;;;2.70;1.15;;;;;;;21.06;66.60;100990.59;5042429;28;20063;-72
2023/08/26 09:57:48;;;;;;;2.60;1.05;;;;;;;20.93;67.53;100984.00;5041450;28;20037;-72
2023/08/26 10:00:16;;;;;;;2.80;1.15;;;;;;;21.06;66.65;100999.47;5038522;28;20478;-73
2023/08/26 10:02:49;;;;;;;3.28;1.30;;;;;;;21.19;68.45;100983.63;5025891;28;20021;-73
2023/08/26 10:05:22;;;;;;;3.20;1.33;;;;;;;21.39;67.02;100984.00;5020627;28;20063;-72
2023/08/26 10:07:49;;;;;;;4.53;1.17;;;;;;;21.38;66.35;100981.53;5030181;28;20464;-72
2023/08/26 10:10:24;;;;;;;2.58;1.20;;;;;;;21.40;66.90;100987.53;5030474;28;20025;-72
2023/08/26 10:12:52;;;;;;;3.25;1.10;;;;;;;21.50;64.71;100980.06;5017249;28;20037;-72
2023/08/26 10:15:19;;;;;;;4.15;1.40;;;;;;;21.41;64.87;100976.63;5030765;28;20027;-72
2023/08/26 10:17:50;;;;;;;3.58;1.25;;;;;;;21.68;66.29;100983.25;5039408;28;20362;-72
2023/08/26 10:20:16;;;;;;;3.10;1.05;;;;;;;22.05;63.33;100990.44;5026402;28;20036;-72
2023/08/26 10:22:45;;;;;;;2.55;1.17;;;;;;;22.23;63.15;100990.03;5036548;28;20644;-72
2023/08/26 10:25:11;;;;;;;4.00;1.25;;;;;;;22.63;63.18;100979.81;5036404;28;20031;-72
2023/08/26 10:27:38;;;;;;;5.43;1.00;;;;;;;22.63;60.80;100980.66;5039046;28;20036;-71
2023/08/26 10:30:06;;;;;;;3.63;1.23;;;;;;;22.43;60.01;100987.63;5035423;28;20028;-72
2023/08/26 10:32:42;;;;;;;2.78;1.00;;;;;;;22.22;61.78;100984.88;5038883;28;20052;-72
2023/08/26 10:35:12;;;;;;;2.38;1.00;;;;;;;22.00;62.57;100981.22;5032578;28;20032;-72
2023/08/26 10:37:38;;;;;;;2.78;1.10;;;;;;;22.06;62.61;100986.75;5032176;28;20036;-72
2023/08/26 10:40:13;;;;;;;3.97;0.90;;;;;;;22.06;64.37;100985.91;5036288;28;20076;-72
2023/08/26 10:43:05;;;;;;;2.25;0.90;;;;;;;22.24;64.99;100985.53;5034898;28;20036;-72
2023/08/26 10:45:30;;;;;;;4.32;0.90;;;;;;;22.11;61.76;100978.16;5036636;28;20076;-71
2023/08/26 10:47:56;;;;;;;3.42;0.90;;;;;;;22.12;65.19;100974.44;5040033;28;20144;-72
2023/08/26 10:50:25;;;;;;;2.28;0.80;;;;;;;22.14;61.36;100967.03;5033968;28;20083;-72
2023/08/26 10:53:13;;;;;;;2.38;1.00;;;;;;;22.15;64.70;100963.34;5026922;28;20104;-71
2023/08/26 10:55:38;;;;;;;4.13;1.20;;;;;;;;;;5028022;28;20390;-72
2023/08/26 10:58:13;;;;;;;2.47;0.90;;;;;;;22.65;59.47;100964.38;5032020;28;20018;-72
2023/08/26 11:00:47;;;;;;;4.30;0.80;;;;;;;22.79;57.84;100963.47;5038462;28;20396;-72
2023/08/26 11:03:14;;;;;;;2.40;0.93;;;;;;;22.64;57.58;100957.34;5040429;28;20083;-72
2023/08/26 11:05:44;;;;;;;1.92;0.98;;;;;;;22.56;59.75;100968.19;5031174;28;20044;-71
2023/08/26 11:08:10;;;;;;;2.70;0.98;;;;;;;22.52;58.76;100963.19;5035040;28;20030;-73
2023/08/26 11:10:40;;;;;;;4.65;1.50;;;;;;;22.35;58.13;100963.59;5040379;28;20031;-72
2023/08/26 11:13:11;;;;;;;2.88;0.90;;;;;;;22.10;58.71;100958.56;5051383;28;20032;-72
2023/08/26 11:15:38;;;;;;;3.65;1.30;;;;;;;22.23;60.53;100955.19;5050075;28;20473;-71